createdAt,value
2022-10-19T00:02:36.530Z,4.70
2022-10-19T00:05:38.013Z,5.00
2022-10-19T00:08:39.753Z,4.70
2022-10-19T00:11:44.417Z,4.70
2022-10-19T00:14:45.869Z,4.70
2022-10-19T00:17:47.338Z,5.30
2022-10-19T00:20:48.792Z,4.80
2022-10-19T00:23:50.290Z,4.00
2022-10-19T00:26:51.718Z,4.20
2022-10-19T00:29:53.729Z,4.00
2022-10-19T00:32:55.214Z,3.10
2022-10-19T00:35:56.746Z,3.00
2022-10-19T00:38:59.092Z,3.10
2022-10-19T00:45:11.043Z,3.20
2022-10-19T00:48:34.709Z,3.10
2022-10-19T00:51:40.192Z,3.40
2022-10-19T00:54:43.988Z,3.70
2022-10-19T00:57:45.430Z,4.10
2022-10-19T01:00:47.279Z,4.80
2022-10-19T01:03:49.270Z,4.70
2022-10-19T01:06:52.867Z,5.30
2022-10-19T01:09:55.311Z,5.50
2022-10-19T01:13:11.917Z,6.60
2022-10-19T01:16:21.129Z,9.10
2022-10-19T01:19:53.371Z,9.10
2022-10-19T01:23:13.666Z,9.80
2022-10-19T01:26:34.361Z,9.00
2022-10-19T01:29:59.545Z,9.80
2022-10-19T01:33:16.732Z,7.00
2022-10-19T01:36:24.465Z,6.40
2022-10-19T01:39:38.585Z,5.90
2022-10-19T01:42:47.011Z,5.40
2022-10-19T01:46:20.743Z,4.90
2022-10-19T01:49:33.400Z,5.20
2022-10-19T01:52:37.357Z,5.30
2022-10-19T01:55:42.524Z,5.50
2022-10-19T01:58:45.945Z,5.40
2022-10-19T02:01:50.550Z,6.00
2022-10-19T02:04:54.490Z,5.50
2022-10-19T02:08:01.273Z,5.30
2022-10-19T02:11:03.708Z,5.20
2022-10-19T02:14:10.836Z,6.10
2022-10-19T02:17:16.456Z,6.90
2022-10-19T02:20:19.526Z,7.40
2022-10-19T02:23:25.596Z,9.10
2022-10-19T02:26:27.100Z,8.30
2022-10-19T02:29:28.657Z,9.10
2022-10-19T02:32:30.145Z,9.00
2022-10-19T02:35:31.669Z,10.20
2022-10-19T02:38:33.581Z,11.50
2022-10-19T02:41:44.126Z,9.60
2022-10-19T02:44:56.890Z,8.60
2022-10-19T02:48:11.503Z,7.70
2022-10-19T02:51:39.888Z,7.40
2022-10-19T02:54:43.483Z,7.40
2022-10-19T02:57:44.991Z,6.70
2022-10-19T03:00:46.586Z,6.70
2022-10-19T03:03:48.139Z,6.90
2022-10-19T03:06:49.660Z,6.70
2022-10-19T03:09:51.243Z,6.00
2022-10-19T03:12:52.703Z,6.30
2022-10-19T03:15:54.133Z,6.80
2022-10-19T03:18:55.682Z,6.40
2022-10-19T03:21:57.550Z,6.60
2022-10-19T03:24:59.010Z,6.30
2022-10-19T03:28:00.655Z,7.30
2022-10-19T03:31:02.142Z,7.40
2022-10-19T03:34:03.807Z,7.40
2022-10-19T03:37:07.937Z,7.60
2022-10-19T03:40:09.723Z,7.10
2022-10-19T03:43:11.207Z,8.90
2022-10-19T03:46:12.700Z,9.10
2022-10-19T03:49:14.314Z,9.60
2022-10-19T03:52:18.227Z,9.70
2022-10-19T03:55:19.688Z,9.60
2022-10-19T03:58:21.143Z,9.00
2022-10-19T04:01:33.659Z,8.40
2022-10-19T04:04:35.415Z,8.00
2022-10-19T04:07:36.880Z,7.30
2022-10-19T04:10:38.353Z,7.80
2022-10-19T04:13:40.213Z,7.80
2022-10-19T04:16:41.819Z,8.80
2022-10-19T04:19:43.377Z,9.60
2022-10-19T04:22:44.903Z,8.90
2022-10-19T04:25:46.489Z,7.40
2022-10-19T04:28:48.296Z,7.50
2022-10-19T04:31:51.437Z,6.40
2022-10-19T04:34:52.999Z,7.20
2022-10-19T04:37:54.459Z,7.50
2022-10-19T04:41:01.527Z,7.90
2022-10-19T04:44:08.628Z,7.10
2022-10-19T04:47:10.275Z,8.70
2022-10-19T04:50:11.785Z,10.10
2022-10-19T04:53:13.272Z,10.50
2022-10-19T04:56:17.935Z,11.10
2022-10-19T04:59:19.573Z,11.20
2022-10-19T05:02:21.081Z,9.50
2022-10-19T05:05:23.714Z,10.40
2022-10-19T05:08:25.154Z,7.70
2022-10-19T05:11:27.013Z,8.00
2022-10-19T05:17:35.408Z,7.90
2022-10-19T05:23:39.998Z,7.10
2022-10-19T05:26:41.530Z,8.80
2022-10-19T05:29:43.200Z,9.00
2022-10-19T05:32:44.815Z,8.70
2022-10-19T05:35:46.427Z,9.30
2022-10-19T05:38:53.375Z,9.50
2022-10-19T05:41:55.385Z,9.00
2022-10-19T05:44:56.941Z,9.20
2022-10-19T05:47:58.418Z,9.20
2022-10-19T05:51:01.617Z,9.70
2022-10-19T05:54:03.353Z,10.30
2022-10-19T05:57:04.823Z,10.40
2022-10-19T06:00:06.845Z,11.40
2022-10-19T06:03:13.208Z,11.50
2022-10-19T06:06:14.729Z,10.80
2022-10-19T06:09:16.248Z,10.40
2022-10-19T06:12:20.440Z,13.20
2022-10-19T06:15:24.413Z,13.50
2022-10-19T06:18:26.051Z,12.40
2022-10-19T06:21:29.735Z,12.20
2022-10-19T06:24:31.676Z,11.10
2022-10-19T06:27:33.959Z,12.80
2022-10-19T06:30:40.352Z,11.90
2022-10-19T06:33:44.294Z,12.60
2022-10-19T06:36:46.603Z,12.10
2022-10-19T06:39:48.183Z,12.60
2022-10-19T06:42:49.990Z,11.80
2022-10-19T06:45:51.691Z,11.40
2022-10-19T06:48:58.476Z,12.90
2022-10-19T06:52:00.041Z,11.70
2022-10-19T06:55:02.036Z,11.90
2022-10-19T06:58:03.854Z,11.90
2022-10-19T07:01:08.301Z,10.90
2022-10-19T07:05:32.835Z,12.00
2022-10-19T07:08:38.996Z,12.20
2022-10-19T07:11:52.522Z,10.30
2022-10-19T07:14:57.568Z,8.30
2022-10-19T07:17:59.262Z,8.50
2022-10-19T07:21:04.316Z,8.50
2022-10-19T07:24:06.089Z,8.70
2022-10-19T07:27:07.706Z,8.50
2022-10-19T07:30:09.531Z,9.70
2022-10-19T07:33:11.111Z,10.20
2022-10-19T07:36:13.359Z,7.90
2022-10-19T07:42:18.010Z,6.90
2022-10-19T07:45:19.619Z,6.90
2022-10-19T07:48:21.128Z,6.20
2022-10-19T07:51:22.901Z,5.60
2022-10-19T07:54:26.755Z,6.00
2022-10-19T07:57:28.472Z,5.30
2022-10-19T08:00:30.253Z,5.60
2022-10-19T08:07:04.806Z,6.60
2022-10-19T08:10:07.101Z,6.00
2022-10-19T08:13:16.038Z,5.60
2022-10-19T08:16:29.890Z,6.30
2022-10-19T08:19:31.648Z,6.30
2022-10-19T08:22:33.394Z,6.30
2022-10-19T08:25:36.670Z,6.20
2022-10-19T08:28:38.116Z,5.90
2022-10-19T08:31:40.537Z,5.00
2022-10-19T08:34:42.051Z,4.80
2022-10-19T08:37:45.681Z,5.00
2022-10-19T08:40:47.590Z,5.60
2022-10-19T08:44:06.335Z,6.40
2022-10-19T08:47:41.537Z,5.60
2022-10-19T08:50:45.099Z,5.40
2022-10-19T08:53:56.834Z,4.50
2022-10-19T08:57:14.405Z,4.70
2022-10-19T09:00:34.573Z,4.70
2022-10-19T09:04:06.093Z,4.40
2022-10-19T09:07:19.014Z,3.80
2022-10-19T09:10:26.043Z,4.40
2022-10-19T09:13:41.562Z,4.10
2022-10-19T09:17:00.954Z,3.80
2022-10-19T09:20:21.202Z,3.90
2022-10-19T09:23:28.725Z,4.10
2022-10-19T09:26:39.433Z,3.90
2022-10-19T09:29:47.102Z,3.50
2022-10-19T09:32:59.883Z,4.10
2022-10-19T09:36:03.936Z,3.50
2022-10-19T09:39:05.577Z,3.60
2022-10-19T09:42:11.861Z,3.40
2022-10-19T09:45:31.656Z,3.50
2022-10-19T09:48:47.037Z,2.20
2022-10-19T09:51:51.614Z,2.90
2022-10-19T09:55:02.929Z,2.20
2022-10-19T09:58:15.761Z,2.40
2022-10-19T10:01:43.038Z,2.10
2022-10-19T10:04:47.181Z,2.20
2022-10-19T10:07:54.660Z,2.20
2022-10-19T10:11:08.544Z,1.80
2022-10-19T10:14:29.826Z,2.00
2022-10-19T10:17:31.787Z,2.10
2022-10-19T10:20:33.317Z,2.50
2022-10-19T10:23:35.988Z,2.60
2022-10-19T10:26:40.706Z,2.10
2022-10-19T10:29:54.400Z,2.00
2022-10-19T10:32:57.983Z,2.00
2022-10-19T10:36:09.860Z,2.00
2022-10-19T10:39:16.679Z,2.00
2022-10-19T10:42:22.198Z,1.80
2022-10-19T10:45:37.349Z,2.50
2022-10-19T10:48:43.663Z,1.90
2022-10-19T10:51:52.912Z,1.90
2022-10-19T10:55:04.696Z,1.40
2022-10-19T10:58:21.224Z,1.60
2022-10-19T11:01:27.281Z,1.70
2022-10-19T11:04:38.017Z,1.70
2022-10-19T11:07:45.536Z,1.80
2022-10-19T11:11:20.802Z,1.40
2022-10-19T11:14:47.223Z,1.30
2022-10-19T11:17:58.352Z,1.10
2022-10-19T11:21:10.383Z,1.00
2022-10-19T11:24:15.623Z,1.30
2022-10-19T11:27:42.622Z,1.20
2022-10-19T11:30:56.726Z,1.30
2022-10-19T11:34:27.666Z,1.60
2022-10-19T11:38:17.439Z,1.10
2022-10-19T11:41:41.287Z,1.30
2022-10-19T11:44:58.798Z,1.40
2022-10-19T11:48:13.470Z,1.00
2022-10-19T11:51:29.387Z,1.50
2022-10-19T11:54:57.676Z,1.50
2022-10-19T11:58:05.960Z,1.50
2022-10-19T12:01:29.039Z,1.30
2022-10-19T12:04:39.436Z,1.30
2022-10-19T12:07:56.134Z,1.20
2022-10-19T12:11:09.331Z,1.70
2022-10-19T12:14:16.927Z,1.40
2022-10-19T12:17:25.209Z,1.40
2022-10-19T12:20:45.694Z,1.40
2022-10-19T12:23:48.011Z,2.20
2022-10-19T12:26:50.917Z,1.50
2022-10-19T12:29:53.609Z,1.00
2022-10-19T12:33:09.032Z,1.10
2022-10-19T12:36:18.943Z,1.30
2022-10-19T12:39:42.575Z,1.30
2022-10-19T12:43:16.604Z,1.60
2022-10-19T12:46:27.197Z,2.00
2022-10-19T12:49:28.575Z,2.10
2022-10-19T12:52:47.660Z,1.90
2022-10-19T12:55:59.871Z,1.60
2022-10-19T12:59:01.849Z,1.60
2022-10-19T13:02:21.631Z,1.50
2022-10-19T13:05:27.064Z,1.60
2022-10-19T13:08:46.170Z,1.70
2022-10-19T13:12:21.291Z,1.30
2022-10-19T13:15:37.042Z,1.40
2022-10-19T13:18:57.204Z,1.60
2022-10-19T13:22:01.778Z,2.30
2022-10-19T13:25:15.648Z,2.00
2022-10-19T13:28:26.172Z,2.00
2022-10-19T13:31:30.890Z,2.80
2022-10-19T13:34:33.058Z,2.60
2022-10-19T13:37:34.898Z,1.70
2022-10-19T13:40:40.966Z,1.80
2022-10-19T13:43:56.817Z,1.50
2022-10-19T13:47:21.422Z,1.40
2022-10-19T13:50:48.522Z,1.00
2022-10-19T13:53:54.615Z,1.30
2022-10-19T13:57:14.727Z,1.60
2022-10-19T14:00:24.464Z,1.60
2022-10-19T14:03:59.967Z,1.30
2022-10-19T14:07:18.453Z,1.90
2022-10-19T14:10:25.186Z,1.40
2022-10-19T14:13:34.467Z,1.40
2022-10-19T14:16:46.409Z,1.40
2022-10-19T14:19:51.694Z,1.60
2022-10-19T14:22:53.486Z,1.90
2022-10-19T14:26:01.142Z,1.90
2022-10-19T14:29:03.572Z,1.90
2022-10-19T14:35:19.950Z,1.60
2022-10-19T14:38:25.343Z,1.70
2022-10-19T14:41:26.886Z,3.10
2022-10-19T14:44:39.470Z,2.00
2022-10-19T14:48:16.977Z,4.60
2022-10-19T14:51:38.024Z,2.10
2022-10-19T14:54:46.229Z,1.60
2022-10-19T14:57:53.146Z,1.80
2022-10-19T15:00:55.242Z,1.60
2022-10-19T15:07:01.592Z,3.80
2022-10-19T15:10:07.844Z,4.20
2022-10-19T15:13:25.807Z,4.10
2022-10-19T15:16:46.051Z,3.90
2022-10-19T15:19:47.803Z,3.70
2022-10-19T15:22:49.437Z,2.00
2022-10-19T15:26:01.465Z,2.50
2022-10-19T15:29:18.886Z,2.60
2022-10-19T15:32:24.339Z,3.10
2022-10-19T15:35:29.855Z,3.00
2022-10-19T15:38:34.256Z,4.10
2022-10-19T15:41:38.079Z,3.90
2022-10-19T15:44:42.914Z,4.00
2022-10-19T15:48:10.324Z,3.50
2022-10-19T15:51:23.982Z,3.30
2022-10-19T15:54:25.623Z,3.20
2022-10-19T15:57:36.055Z,2.60
2022-10-19T16:00:38.723Z,2.40
2022-10-19T16:03:40.323Z,2.90
2022-10-19T16:06:44.981Z,3.70
2022-10-19T16:09:47.157Z,3.90
2022-10-19T16:16:01.375Z,2.90
2022-10-19T16:19:14.899Z,3.00
2022-10-19T16:22:19.016Z,3.20
2022-10-19T16:25:24.294Z,3.00
2022-10-19T16:28:31.444Z,2.40
2022-10-19T16:31:33.571Z,2.60
2022-10-19T16:34:37.654Z,3.00
2022-10-19T16:37:42.446Z,3.00
2022-10-19T16:40:45.946Z,2.90
2022-10-19T16:43:53.442Z,3.60
2022-10-19T16:46:57.898Z,2.80
2022-10-19T16:50:00.790Z,2.40
2022-10-19T16:53:11.674Z,3.00
2022-10-19T16:56:13.313Z,3.50
2022-10-19T16:59:18.147Z,2.70
2022-10-19T17:02:22.062Z,3.50
2022-10-19T17:05:23.692Z,3.20
2022-10-19T17:08:37.103Z,3.20
2022-10-19T17:11:46.875Z,2.80
2022-10-19T17:14:48.490Z,3.20
2022-10-19T17:17:50.343Z,3.20
2022-10-19T17:20:52.073Z,2.90
2022-10-19T17:23:56.137Z,3.10
2022-10-19T17:27:03.586Z,2.80
2022-10-19T17:30:05.841Z,3.00
2022-10-19T17:33:07.436Z,3.20
2022-10-19T17:36:12.401Z,3.60
2022-10-19T17:39:25.610Z,3.10
2022-10-19T17:42:31.553Z,3.70
2022-10-19T17:45:33.036Z,5.10
2022-10-19T17:48:36.937Z,4.70
2022-10-19T17:51:39.095Z,5.10
2022-10-19T17:54:48.868Z,3.20
2022-10-19T17:58:02.003Z,2.10
2022-10-19T18:01:04.850Z,5.40
2022-10-19T18:04:06.664Z,4.00
2022-10-19T18:07:08.212Z,3.90
2022-10-19T18:10:09.874Z,2.70
2022-10-19T18:13:11.516Z,3.20
2022-10-19T18:16:15.330Z,5.90
2022-10-19T18:19:17.116Z,4.30
2022-10-19T18:22:21.128Z,4.50
2022-10-19T18:25:42.163Z,4.00
2022-10-19T18:28:44.886Z,3.80
2022-10-19T18:34:53.326Z,2.60
2022-10-19T18:37:54.891Z,2.90
2022-10-19T18:41:02.275Z,5.20
2022-10-19T18:44:06.303Z,4.80
2022-10-19T18:47:21.243Z,5.70
2022-10-19T18:50:23.531Z,6.50
2022-10-19T18:53:25.169Z,5.60
2022-10-19T18:56:28.791Z,5.20
2022-10-19T18:59:30.355Z,5.70
2022-10-19T19:02:42.295Z,6.70
2022-10-19T19:05:47.470Z,6.50
2022-10-19T19:08:49.265Z,6.10
2022-10-19T19:14:55.075Z,6.20
2022-10-19T19:17:56.536Z,6.00
2022-10-19T19:20:58.040Z,6.80
2022-10-19T19:24:01.220Z,6.20
2022-10-19T19:27:02.848Z,6.70
2022-10-19T19:30:04.725Z,6.40
2022-10-19T19:33:06.224Z,10.30
2022-10-19T19:36:09.680Z,10.50
2022-10-19T19:39:11.201Z,9.10
2022-10-19T19:42:14.301Z,9.60
2022-10-19T19:45:16.319Z,8.10
2022-10-19T19:48:20.378Z,7.60
2022-10-19T19:51:24.597Z,7.70
2022-10-19T19:54:26.169Z,7.80
2022-10-19T19:57:31.680Z,7.40
2022-10-19T20:00:36.020Z,6.90
2022-10-19T20:03:38.245Z,6.70
2022-10-19T20:09:41.719Z,6.10
2022-10-19T20:12:47.220Z,10.50
2022-10-19T20:15:49.767Z,7.70
2022-10-19T20:18:59.359Z,10.30
2022-10-19T20:22:01.108Z,8.80
2022-10-19T20:25:03.324Z,9.10
2022-10-19T20:28:05.153Z,9.60
2022-10-19T20:31:08.810Z,7.70
2022-10-19T20:34:13.143Z,9.60
2022-10-19T20:37:14.574Z,11.60
2022-10-19T20:40:16.760Z,15.70
2022-10-19T20:46:22.367Z,21.10
2022-10-19T20:49:27.010Z,17.90
2022-10-19T20:52:29.510Z,15.50
2022-10-19T20:55:35.224Z,16.30
2022-10-19T20:58:42.709Z,14.40
2022-10-19T21:01:48.652Z,13.90
2022-10-19T21:04:50.533Z,12.10
2022-10-19T21:07:52.739Z,11.00
2022-10-19T21:10:56.938Z,9.60
2022-10-19T21:14:01.537Z,9.20
2022-10-19T21:17:02.986Z,9.00
2022-10-19T21:20:04.817Z,7.70
2022-10-19T21:23:06.452Z,6.80
2022-10-19T21:26:08.403Z,6.70
2022-10-19T21:29:12.115Z,5.90
2022-10-19T21:32:13.620Z,5.40
2022-10-19T21:35:15.279Z,6.30
2022-10-19T21:38:16.809Z,6.60
2022-10-19T21:41:23.747Z,6.70
2022-10-19T21:44:27.871Z,6.60
2022-10-19T21:47:29.271Z,5.60
2022-10-19T21:50:30.831Z,5.20
2022-10-19T21:53:32.380Z,5.50
2022-10-19T21:56:34.200Z,5.00
2022-10-19T21:59:35.695Z,6.70
2022-10-19T22:02:37.141Z,4.90
2022-10-19T22:05:39.182Z,6.40
2022-10-19T22:08:44.813Z,7.40
2022-10-19T22:11:46.405Z,7.80
2022-10-19T22:14:47.831Z,7.30
2022-10-19T22:17:49.480Z,5.80
2022-10-19T22:20:50.912Z,6.90
2022-10-19T22:23:59.992Z,8.80
2022-10-19T22:27:01.706Z,9.50
2022-10-19T22:30:03.406Z,10.70
2022-10-19T22:33:04.878Z,13.80
2022-10-19T22:36:09.130Z,15.40
2022-10-19T22:39:11.141Z,15.50
2022-10-19T22:42:12.746Z,18.20
2022-10-19T22:45:14.395Z,18.60
2022-10-19T22:48:17.352Z,18.90
2022-10-19T22:51:18.990Z,19.50
2022-10-19T22:54:20.602Z,19.80
2022-10-19T22:57:22.169Z,19.50
2022-10-19T23:00:24.793Z,19.20
2022-10-19T23:03:26.434Z,21.50
2022-10-19T23:06:28.106Z,24.20
2022-10-19T23:09:29.681Z,23.10
2022-10-19T23:12:31.371Z,23.20
2022-10-19T23:15:33.001Z,15.40
2022-10-19T23:18:37.744Z,21.20
2022-10-19T23:21:39.359Z,20.10
2022-10-19T23:24:40.946Z,18.70
2022-10-19T23:27:42.645Z,19.90
2022-10-19T23:30:44.237Z,18.50
2022-10-19T23:33:46.697Z,15.90
2022-10-19T23:36:48.292Z,18.00
2022-10-19T23:39:49.797Z,17.70
2022-10-19T23:42:51.536Z,16.30
2022-10-19T23:45:53.150Z,16.80
2022-10-19T23:48:54.708Z,17.50
2022-10-19T23:51:56.243Z,17.70
2022-10-19T23:54:57.782Z,15.60
2022-10-19T23:57:59.274Z,15.00
